Time;durP1;ratioP1;P1;durP2;ratioP2;P2;SDS_P1;SDS_P2;PMS_P1;PMS_P2;Temp;Humidity;BMP_temperature;BMP_pressure;BME280_temperature;BME280_humidity;BME280_pressure;Samples;Min_cycle;Max_cycle;Signal;HPM_P1;HPM_P2
2022/07/12 00:02:08;;;;;;;2.20;2.00;;;13.70;99.90;;;;;;5031272;28;20554;-54
2022/07/12 00:04:34;;;;;;;3.83;1.83;;;13.60;99.90;;;;;;5049611;28;20070;-56
2022/07/12 00:07:00;;;;;;;3.10;2.03;;;13.60;99.90;;;;;;5049791;28;20045;-50
2022/07/12 00:09:25;;;;;;;2.00;1.90;;;13.60;99.90;;;;;;5049794;28;20480;-53
2022/07/12 00:11:51;;;;;;;1.70;1.60;;;13.50;99.90;;;;;;5049614;28;20021;-53
2022/07/12 00:14:17;;;;;;;1.95;1.83;;;13.50;99.90;;;;;;5049404;28;20074;-55
2022/07/12 00:16:42;;;;;;;2.17;1.98;;;13.50;99.90;;;;;;5046088;28;20513;-51
2022/07/12 00:19:08;;;;;;;2.53;1.85;;;13.50;99.90;;;;;;5049351;28;20052;-52
2022/07/12 00:21:34;;;;;;;2.58;2.38;;;13.40;99.90;;;;;;5048382;28;20032;-51
2022/07/12 00:24:00;;;;;;;2.90;2.20;;;13.40;99.90;;;;;;5049085;28;20064;-49
2022/07/12 00:26:26;;;;;;;1.80;1.70;;;13.40;99.90;;;;;;5049041;28;20079;-53
2022/07/12 00:28:51;;;;;;;3.05;1.92;;;13.40;99.90;;;;;;5041814;28;20032;-51
2022/07/12 00:31:18;;;;;;;3.22;2.08;;;13.30;99.90;;;;;;5030880;28;20052;-53
2022/07/12 00:33:43;;;;;;;1.98;1.77;;;13.30;99.90;;;;;;5070290;22;20055;-50
2022/07/12 00:36:09;;;;;;;3.25;2.30;;;13.20;99.90;;;;;;5028511;28;20029;-50
2022/07/12 00:38:34;;;;;;;3.03;2.10;;;13.20;99.90;;;;;;5029741;28;20021;-49
2022/07/12 00:41:00;;;;;;;1.92;1.83;;;13.20;99.90;;;;;;5029830;28;20025;-47
2022/07/12 00:43:26;;;;;;;2.15;2.05;;;13.10;99.90;;;;;;5028520;28;20037;-49
2022/07/12 00:45:52;;;;;;;1.70;1.60;;;13.10;99.90;;;;;;5029233;28;20100;-49
2022/07/12 00:48:18;;;;;;;2.47;2.28;;;13.10;99.90;;;;;;5029350;28;20037;-49
2022/07/12 00:50:47;;;;;;;2.65;2.38;;;13.00;99.90;;;;;;5028905;28;20033;-49
2022/07/12 00:53:14;;;;;;;2.38;2.03;;;13.00;99.90;;;;;;5011267;28;20055;-47
2022/07/12 00:55:40;;;;;;;2.00;1.90;;;12.90;99.90;;;;;;5029105;28;20052;-52
2022/07/12 00:58:06;;;;;;;2.63;2.42;;;12.90;99.90;;;;;;5025123;28;20033;-54
2022/07/12 01:00:31;;;;;;;2.60;2.13;;;12.90;99.90;;;;;;5023957;28;20057;-47
2022/07/12 01:03:00;;;;;;;3.20;2.22;;;12.90;99.90;;;;;;5026326;28;20037;-51
2022/07/12 01:05:27;;;;;;;2.25;2.00;;;12.80;99.90;;;;;;5028348;28;20079;-49
2022/07/12 01:07:54;;;;;;;2.17;2.00;;;12.90;99.90;;;;;;5029230;28;20025;-47
2022/07/12 01:10:20;;;;;;;2.45;2.05;;;12.80;99.90;;;;;;5028539;28;20029;-48
2022/07/12 01:12:46;;;;;;;2.63;2.00;;;12.80;99.90;;;;;;5028251;28;20095;-48
2022/07/12 01:15:11;;;;;;;2.20;2.00;;;12.80;99.90;;;;;;5029319;28;20376;-47
2022/07/12 01:17:38;;;;;;;2.67;2.47;;;12.80;99.90;;;;;;5028915;28;20041;-47
2022/07/12 01:20:08;;;;;;;2.60;2.20;;;12.70;99.90;;;;;;5029227;28;20084;-48
2022/07/12 01:22:35;;;;;;;2.65;2.20;;;12.70;99.90;;;;;;5028544;28;20591;-54
2022/07/12 01:25:03;;;;;;;2.17;1.98;;;12.60;99.90;;;;;;5028945;28;20488;-47
2022/07/12 01:27:29;;;;;;;2.30;2.10;;;12.60;99.90;;;;;;5028415;28;20053;-53
2022/07/12 01:29:55;;;;;;;2.85;2.25;;;12.60;99.90;;;;;;5028958;28;20707;-47
2022/07/12 01:32:24;;;;;;;2.47;2.28;;;12.60;99.90;;;;;;5028006;28;20557;-53
2022/07/12 01:35:03;;;;;;;2.30;1.98;;;12.50;99.90;;;;;;5028357;28;20040;-48
2022/07/12 01:37:32;;;;;;;2.22;2.03;;;12.50;99.90;;;;;;5029024;28;20025;-48
2022/07/12 01:39:58;;;;;;;2.80;2.58;;;12.50;99.90;;;;;;5028841;28;20032;-52
2022/07/12 01:42:26;;;;;;;2.53;2.33;;;12.40;99.90;;;;;;5027812;28;20044;-50
2022/07/12 01:44:53;;;;;;;2.58;2.35;;;12.40;99.90;;;;;;5028069;28;20026;-52
2022/07/12 01:47:20;;;;;;;2.72;2.53;;;12.40;99.90;;;;;;5022287;28;20033;-48
2022/07/12 01:49:46;;;;;;;3.28;2.50;;;12.40;99.90;;;;;;5010985;28;20022;-52
2022/07/12 01:52:13;;;;;;;2.78;2.58;;;12.30;99.90;;;;;;5027470;28;20653;-50
2022/07/12 01:54:39;;;;;;;2.45;2.10;;;12.30;99.90;;;;;;5029263;28;20441;-51
2022/07/12 01:57:05;;;;;;;2.45;2.25;;;12.30;99.90;;;;;;5027130;28;20104;-49
2022/07/12 01:59:31;;;;;;;2.97;2.67;;;12.20;99.90;;;;;;5028892;28;20431;-49
2022/07/12 02:01:57;;;;;;;2.80;2.47;;;12.20;99.90;;;;;;5010735;28;20399;-47
2022/07/12 02:04:23;;;;;;;2.95;2.75;;;12.10;99.90;;;;;;5028480;28;20083;-55
2022/07/12 02:06:49;;;;;;;3.13;2.08;;;12.10;99.90;;;;;;5028810;28;20029;-54
2022/07/12 02:09:16;;;;;;;2.47;2.28;;;12.10;99.90;;;;;;5031637;28;20025;-47
2022/07/12 02:11:43;;;;;;;2.72;2.53;;;12.10;99.90;;;;;;5032110;28;20060;-47
2022/07/12 02:14:09;;;;;;;3.15;2.92;;;12.10;99.90;;;;;;5031959;28;20025;-49
2022/07/12 02:16:35;;;;;;;3.53;3.22;;;12.00;99.90;;;;;;5032167;28;20025;-47
2022/07/12 02:19:01;;;;;;;3.45;3.10;;;12.10;99.90;;;;;;5031980;28;20087;-47
2022/07/12 02:21:27;;;;;;;3.72;3.35;;;12.00;99.90;;;;;;5032096;28;20071;-48
2022/07/12 02:23:52;;;;;;;2.95;2.55;;;12.00;99.90;;;;;;5032001;28;20064;-52
2022/07/12 02:26:18;;;;;;;3.22;2.80;;;12.00;99.90;;;;;;5031680;28;20590;-47
2022/07/12 02:28:44;;;;;;;5.90;3.30;;;12.00;99.90;;;;;;5032276;28;20029;-50
2022/07/12 02:31:09;;;;;;;4.20;3.25;;;12.00;99.90;;;;;;5029260;28;20029;-47
2022/07/12 02:33:35;;;;;;;3.83;3.15;;;12.00;99.90;;;;;;5013947;28;20553;-52
2022/07/12 02:36:01;;;;;;;5.38;3.55;;;12.00;99.90;;;;;;5031707;28;20026;-52
2022/07/12 02:38:27;;;;;;;3.38;3.03;;;11.90;99.90;;;;;;5031793;28;20553;-54
2022/07/12 02:40:53;;;;;;;3.90;3.50;;;12.00;99.90;;;;;;5031684;28;20145;-50
2022/07/12 02:43:26;;;;;;;3.50;3.20;;;11.90;99.90;;;;;;5031166;28;20056;-48
2022/07/12 02:45:54;;;;;;;4.20;3.33;;;11.90;99.90;;;;;;5013042;28;20017;-47
2022/07/12 02:48:19;;;;;;;4.22;3.70;;;11.90;99.90;;;;;;5013630;28;20382;-53
2022/07/12 02:50:46;;;;;;;4.88;3.30;;;11.90;99.90;;;;;;5031445;28;20108;-46
2022/07/12 02:53:12;;;;;;;3.50;3.20;;;11.80;99.90;;;;;;5031210;28;20479;-50
2022/07/12 02:55:38;;;;;;;4.78;3.25;;;11.90;99.90;;;;;;5030981;28;20033;-54
2022/07/12 02:58:05;;;;;;;4.22;3.83;;;11.80;99.90;;;;;;5031100;28;20029;-47
2022/07/12 03:00:32;;;;;;;4.45;3.50;;;11.80;99.90;;;;;;5031241;28;20036;-47
2022/07/12 03:02:57;;;;;;;4.78;3.63;;;11.80;99.90;;;;;;5030480;28;20040;-47
2022/07/12 03:05:23;;;;;;;4.80;3.65;;;11.80;99.90;;;;;;5031336;28;20021;-47
2022/07/12 03:07:49;;;;;;;3.95;3.65;;;11.80;99.90;;;;;;5031091;28;20412;-49
2022/07/12 03:10:15;;;;;;;4.78;3.83;;;11.80;99.90;;;;;;5031278;28;20037;-48
2022/07/12 03:12:40;;;;;;;4.85;3.80;;;11.70;99.90;;;;;;5031024;28;20116;-50
2022/07/12 03:15:07;;;;;;;4.47;3.50;;;11.80;99.90;;;;;;5031361;28;20507;-53
2022/07/12 03:17:33;;;;;;;4.13;3.72;;;11.70;99.90;;;;;;5031224;28;20100;-52
2022/07/12 03:19:58;;;;;;;3.75;3.35;;;11.70;99.90;;;;;;5029700;28;20045;-51
2022/07/12 03:22:24;;;;;;;4.05;3.58;;;11.70;99.90;;;;;;5030429;28;20044;-47
2022/07/12 03:24:50;;;;;;;5.68;3.75;;;11.70;99.90;;;;;;5030842;28;20379;-47
2022/07/12 03:27:16;;;;;;;4.32;3.78;;;11.70;99.90;;;;;;5030781;28;20545;-49
2022/07/12 03:29:42;;;;;;;5.20;4.20;;;11.70;99.90;;;;;;5030513;28;20032;-47
2022/07/12 03:32:08;;;;;;;4.68;4.18;;;11.70;99.90;;;;;;5030600;28;20450;-46
2022/07/12 03:34:33;;;;;;;4.97;3.20;;;11.70;99.90;;;;;;5030383;28;20029;-50
2022/07/12 03:36:59;;;;;;;4.60;3.90;;;11.70;99.90;;;;;;5030301;28;20049;-49
2022/07/12 03:39:25;;;;;;;5.85;4.50;;;11.70;99.90;;;;;;5030663;28;20026;-50
2022/07/12 03:41:50;;;;;;;4.15;3.75;;;11.70;99.90;;;;;;5030008;28;20061;-47
2022/07/12 03:44:16;;;;;;;5.53;4.18;;;11.70;99.90;;;;;;5030297;28;20028;-48
2022/07/12 03:46:41;;;;;;;4.10;3.70;;;11.70;99.90;;;;;;5013055;28;20018;-52
2022/07/12 03:49:07;;;;;;;4.78;4.18;;;11.70;99.90;;;;;;5030566;28;20029;-55
2022/07/12 03:51:33;;;;;;;4.28;3.70;;;11.70;99.90;;;;;;5012509;28;20021;-46
2022/07/12 03:53:58;;;;;;;5.63;3.92;;;11.70;99.90;;;;;;5030200;28;20491;-47
2022/07/12 03:59:09;;;;;;;4.78;4.28;;;11.70;99.90;;;;;;5028328;28;20061;-46
2022/07/12 04:01:35;;;;;;;5.15;3.67;;;11.70;99.90;;;;;;5029590;28;20108;-47
2022/07/12 04:04:02;;;;;;;4.95;3.53;;;11.70;99.90;;;;;;5029832;28;20037;-47
2022/07/12 04:06:28;;;;;;;4.82;3.95;;;11.70;99.90;;;;;;5012039;28;20025;-49
2022/07/12 04:08:53;;;;;;;4.22;3.80;;;11.70;99.90;;;;;;5029548;28;20033;-46
2022/07/12 04:11:19;;;;;;;6.20;4.13;;;11.80;99.90;;;;;;5029894;28;20017;-49
2022/07/12 04:13:44;;;;;;;4.15;3.20;;;11.80;99.90;;;;;;5029771;28;20083;-47
2022/07/12 04:16:10;;;;;;;3.67;3.38;;;11.80;99.90;;;;;;5029943;28;20033;-52
2022/07/12 04:18:35;;;;;;;4.35;3.95;;;11.80;99.90;;;;;;5029835;28;20041;-47
2022/07/12 04:21:01;;;;;;;5.13;4.20;;;11.80;99.90;;;;;;5011579;28;20444;-46
2022/07/12 04:23:26;;;;;;;5.15;3.83;;;11.80;99.90;;;;;;5029572;28;20040;-49
2022/07/12 04:25:52;;;;;;;4.03;3.63;;;11.80;99.90;;;;;;5029550;28;20091;-50
2022/07/12 04:28:18;;;;;;;4.40;3.80;;;11.80;99.90;;;;;;5029822;28;20025;-47
2022/07/12 04:30:44;;;;;;;4.10;3.63;;;11.90;99.90;;;;;;5029101;28;20037;-49
2022/07/12 04:33:10;;;;;;;4.03;3.70;;;11.90;99.90;;;;;;5028477;28;20030;-47
2022/07/12 04:35:36;;;;;;;5.05;4.45;;;11.90;99.90;;;;;;5028731;28;20079;-46
2022/07/12 04:38:03;;;;;;;4.50;4.10;;;11.90;99.90;;;;;;5029535;28;20029;-46
2022/07/12 04:40:28;;;;;;;4.63;3.90;;;12.00;99.90;;;;;;5029139;28;20086;-50
2022/07/12 04:42:54;;;;;;;5.18;4.43;;;11.90;99.90;;;;;;5028736;28;20108;-47
2022/07/12 04:45:20;;;;;;;4.47;4.07;;;12.00;99.90;;;;;;5028851;28;20032;-49
2022/07/12 04:47:45;;;;;;;6.18;4.80;;;12.00;99.90;;;;;;5029034;28;20021;-48
2022/07/12 04:50:11;;;;;;;6.13;5.03;;;12.10;99.90;;;;;;5029284;28;20021;-49
2022/07/12 04:52:37;;;;;;;6.10;5.22;;;12.20;99.90;;;;;;5028408;28;20112;-53
2022/07/12 04:55:04;;;;;;;6.80;5.35;;;12.20;99.90;;;;;;5029125;28;20053;-49
2022/07/12 04:57:30;;;;;;;6.80;5.53;;;12.30;99.90;;;;;;5029272;28;20409;-49
2022/07/12 04:59:56;;;;;;;6.85;5.50;;;12.40;99.90;;;;;;5029336;28;20116;-50
2022/07/12 05:02:21;;;;;;;7.95;6.13;;;12.50;99.90;;;;;;5028682;28;20029;-53
2022/07/12 05:04:47;;;;;;;7.70;6.90;;;12.60;99.90;;;;;;5028847;28;20091;-52
2022/07/12 05:07:12;;;;;;;10.57;6.85;;;12.80;99.90;;;;;;5029358;28;20046;-46
2022/07/12 05:09:38;;;;;;;10.90;7.38;;;12.90;99.90;;;;;;5028817;28;20099;-47
2022/07/12 05:12:04;;;;;;;10.07;6.97;;;13.10;99.90;;;;;;5029119;28;20095;-53
2022/07/12 05:14:29;;;;;;;8.50;7.25;;;13.10;99.90;;;;;;5028356;28;20082;-55
2022/07/12 05:16:55;;;;;;;9.00;8.10;;;13.30;99.90;;;;;;5028922;28;20396;-47
2022/07/12 05:19:21;;;;;;;9.60;8.18;;;13.40;99.90;;;;;;5028416;28;20026;-46
2022/07/12 05:21:46;;;;;;;9.27;7.50;;;13.50;99.90;;;;;;5028518;28;20030;-47
2022/07/12 05:24:12;;;;;;;9.55;7.15;;;13.60;99.90;;;;;;5028113;28;20467;-52
2022/07/12 05:26:37;;;;;;;9.75;7.45;;;13.60;99.90;;;;;;5028971;28;20034;-47
2022/07/12 05:29:03;;;;;;;9.30;8.30;;;13.70;99.90;;;;;;5028745;28;20029;-47
2022/07/12 05:31:29;;;;;;;8.23;7.28;;;13.80;99.90;;;;;;5028774;28;20124;-49
2022/07/12 05:33:54;;;;;;;8.68;7.78;;;13.80;99.90;;;;;;5028292;28;20033;-54
2022/07/12 05:36:20;;;;;;;8.32;7.40;;;13.90;99.90;;;;;;5028420;28;20041;-52
2022/07/12 05:38:46;;;;;;;10.10;7.18;;;14.00;99.90;;;;;;5028695;28;20129;-46
2022/07/12 05:41:12;;;;;;;8.23;7.40;;;14.00;99.90;;;;;;5028516;28;20541;-49
2022/07/12 05:43:38;;;;;;;11.23;7.82;;;14.20;99.90;;;;;;5029962;28;20419;-46
2022/07/12 05:46:04;;;;;;;8.98;7.22;;;14.30;99.90;;;;;;5032893;28;20026;-47
2022/07/12 05:48:30;;;;;;;8.70;7.80;;;14.40;99.90;;;;;;5032471;28;20029;-48
2022/07/12 05:53:21;;;;;;;9.55;7.28;;;14.40;99.90;;;;;;5032971;28;20033;-51
2022/07/12 05:53:41;;;;;;;8.05;6.60;;;14.50;99.90;;;;;;5027736;28;20037;-52
2022/07/12 05:56:06;;;;;;;6.68;5.97;;;14.60;99.90;;;;;;5023243;28;20037;-51
2022/07/12 05:58:32;;;;;;;6.53;5.80;;;14.80;99.90;;;;;;5032417;28;20025;-51
2022/07/12 06:00:57;;;;;;;6.60;5.90;;;14.80;99.90;;;;;;5031891;28;20043;-47
2022/07/12 06:03:23;;;;;;;7.90;6.65;;;14.90;99.90;;;;;;5032326;28;20072;-52
2022/07/12 06:05:48;;;;;;;6.72;6.07;;;15.00;99.90;;;;;;5032388;28;20640;-50
2022/07/12 06:08:14;;;;;;;6.15;5.55;;;15.10;99.90;;;;;;5032116;28;20567;-50
2022/07/12 06:10:40;;;;;;;6.93;6.00;;;15.20;99.90;;;;;;5032423;28;20475;-51
2022/07/12 06:13:05;;;;;;;7.15;5.68;;;15.40;99.90;;;;;;5032374;28;20079;-50
2022/07/12 06:15:31;;;;;;;5.05;4.50;;;15.40;99.90;;;;;;5032132;28;20032;-49
2022/07/12 06:17:57;;;;;;;3.90;3.50;;;15.60;99.90;;;;;;5032247;28;20053;-49
2022/07/12 06:20:22;;;;;;;4.05;3.75;;;15.60;99.90;;;;;;5032178;28;20400;-48
2022/07/12 06:22:48;;;;;;;5.47;4.38;;;15.70;99.90;;;;;;5031195;28;20484;-49
2022/07/12 06:25:14;;;;;;;5.07;4.50;;;15.80;99.90;;;;;;5024110;28;20040;-54
2022/07/12 06:27:40;;;;;;;4.32;3.38;;;15.90;99.90;;;;;;5031702;28;20387;-48
2022/07/12 06:30:06;;;;;;;5.40;3.13;;;15.90;99.90;;;;;;5031898;28;20057;-49
2022/07/12 06:32:32;;;;;;;3.40;3.08;;;16.00;99.90;;;;;;5031063;28;20091;-55
2022/07/12 06:34:58;;;;;;;3.55;2.92;;;16.00;99.90;;;;;;5031899;28;20074;-53
2022/07/12 06:39:52;;;;;;;3.03;2.72;;;16.20;99.90;;;;;;5029863;28;19928;-50
2022/07/12 06:42:17;;;;;;;2.97;2.72;;;16.30;99.90;;;;;;5010067;28;20109;-53
2022/07/12 06:44:43;;;;;;;2.80;2.47;;;16.40;99.90;;;;;;5031185;28;20021;-50
2022/07/12 06:47:10;;;;;;;5.47;3.13;;;16.50;99.90;;;;;;5013308;28;20029;-51
2022/07/12 06:49:35;;;;;;;4.47;3.60;;;16.60;99.90;;;;;;5013773;28;20053;-49
2022/07/12 06:52:01;;;;;;;4.47;2.58;;;16.70;99.90;;;;;;5030402;28;20048;-53
2022/07/12 06:54:26;;;;;;;3.08;2.88;;;16.70;99.90;;;;;;5031326;28;20025;-49
2022/07/12 06:56:52;;;;;;;2.47;1.88;;;16.80;99.90;;;;;;5031260;28;20389;-49
2022/07/12 06:59:17;;;;;;;3.60;2.70;;;16.90;99.90;;;;;;5031059;28;20025;-52
2022/07/12 07:01:43;;;;;;;3.60;2.28;;;17.00;99.90;;;;;;5029842;28;20037;-54
2022/07/12 07:04:09;;;;;;;3.20;2.42;;;17.10;99.90;;;;;;5031011;28;20044;-49
2022/07/12 07:06:34;;;;;;;3.05;2.50;;;17.20;99.90;;;;;;5031276;28;20040;-52
2022/07/12 07:09:00;;;;;;;7.13;2.78;;;17.20;99.90;;;;;;5013136;28;20022;-50
2022/07/12 07:11:26;;;;;;;4.28;2.67;;;17.30;99.90;;;;;;5030739;28;20083;-54
2022/07/12 07:13:51;;;;;;;5.32;2.50;;;17.40;99.90;;;;;;5030947;28;20025;-54
2022/07/12 07:16:19;;;;;;;2.42;2.22;;;17.40;99.90;;;;;;5030793;28;20367;-49
2022/07/12 07:18:45;;;;;;;4.53;2.20;;;17.50;99.90;;;;;;5031007;28;20083;-52
2022/07/12 07:21:11;;;;;;;2.45;2.25;;;17.60;99.90;;;;;;5012665;28;20033;-52
2022/07/12 07:23:36;;;;;;;3.38;2.67;;;17.70;99.90;;;;;;5030731;28;20036;-50
2022/07/12 07:26:02;;;;;;;3.60;2.78;;;17.70;99.90;;;;;;5030475;28;20179;-52
2022/07/12 07:28:28;;;;;;;3.60;2.90;;;17.80;99.90;;;;;;5012788;28;20032;-51
2022/07/12 07:30:54;;;;;;;4.10;2.65;;;17.80;99.90;;;;;;5030802;28;20092;-49
2022/07/12 07:33:20;;;;;;;3.80;2.90;;;17.90;99.90;;;;;;5030529;28;20017;-49
2022/07/12 07:35:46;;;;;;;2.22;2.03;;;17.90;99.90;;;;;;5030888;28;20072;-49
2022/07/12 07:38:12;;;;;;;2.80;2.60;;;18.00;99.90;;;;;;5029837;28;20040;-51
2022/07/12 07:40:37;;;;;;;3.17;2.70;;;18.00;99.90;;;;;;5029038;28;20104;-53
2022/07/12 07:43:03;;;;;;;3.38;2.40;;;18.00;99.90;;;;;;5029483;28;20029;-50
2022/07/12 07:45:28;;;;;;;3.67;2.78;;;18.10;99.90;;;;;;5028994;28;20026;-51
2022/07/12 07:47:54;;;;;;;2.65;2.45;;;18.20;99.90;;;;;;5030045;28;20036;-48
2022/07/12 07:50:20;;;;;;;2.17;2.08;;;18.10;99.90;;;;;;5012500;28;20075;-51
2022/07/12 07:52:48;;;;;;;3.22;1.83;;;18.20;99.90;;;;;;5029815;28;20487;-49
2022/07/12 07:55:14;;;;;;;2.58;2.30;;;18.20;99.90;;;;;;5006939;28;20506;-52
2022/07/12 07:57:39;;;;;;;5.15;2.03;;;18.30;99.90;;;;;;5030467;28;20072;-52
2022/07/12 08:00:05;;;;;;;1.73;1.63;;;18.30;99.90;;;;;;5030006;28;20502;-53
2022/07/12 08:02:31;;;;;;;3.85;1.88;;;18.30;99.90;;;;;;5029685;28;20395;-56
2022/07/12 08:04:56;;;;;;;2.45;2.25;;;18.40;99.90;;;;;;5029811;28;20029;-48
2022/07/12 08:07:22;;;;;;;3.92;2.63;;;18.40;99.90;;;;;;5011635;28;20110;-51
2022/07/12 08:09:47;;;;;;;2.33;2.13;;;18.50;99.90;;;;;;5030375;28;20030;-53
2022/07/12 08:12:13;;;;;;;6.00;2.72;;;18.60;99.90;;;;;;5030199;28;20025;-56
2022/07/12 08:14:39;;;;;;;4.18;2.63;;;18.60;99.90;;;;;;5029346;28;20111;-55
2022/07/12 08:17:05;;;;;;;2.30;2.10;;;18.50;99.90;;;;;;5029219;28;20048;-49
2022/07/12 08:19:30;;;;;;;4.28;2.22;;;18.60;99.90;;;;;;5029265;28;20034;-50
2022/07/12 08:21:56;;;;;;;2.50;1.80;;;18.60;99.90;;;;;;5028972;28;20211;-54
2022/07/12 08:24:21;;;;;;;2.85;2.35;;;18.60;99.90;;;;;;5010782;28;20017;-55
2022/07/12 08:26:48;;;;;;;2.22;2.08;;;18.70;99.90;;;;;;5028795;28;20029;-52
2022/07/12 08:29:14;;;;;;;4.85;2.00;;;18.80;99.90;;;;;;5029091;28;20419;-55
2022/07/12 08:31:39;;;;;;;1.50;1.40;;;18.90;99.90;;;;;;5010190;28;20029;-49
2022/07/12 08:34:05;;;;;;;4.07;1.58;;;18.90;99.90;;;;;;5028926;28;20405;-53
2022/07/12 08:36:30;;;;;;;2.70;1.02;;;19.00;99.90;;;;;;5028754;28;20033;-52
2022/07/12 08:38:56;;;;;;;1.13;1.02;;;19.20;99.90;;;;;;5028587;28;20116;-53
2022/07/12 08:41:21;;;;;;;2.15;1.55;;;19.30;99.90;;;;;;5028898;28;20017;-51
2022/07/12 08:43:47;;;;;;;1.42;1.30;;;19.60;99.90;;;;;;5027249;28;20037;-50
2022/07/12 08:46:15;;;;;;;1.50;1.38;;;19.90;99.90;;;;;;5010510;28;20025;-50
2022/07/12 08:48:42;;;;;;;1.88;1.38;;;20.10;99.90;;;;;;5028264;28;20112;-56
2022/07/12 08:51:14;;;;;;;5.18;1.55;;;20.20;99.90;;;;;;5010531;28;20037;-51
2022/07/12 08:53:40;;;;;;;1.42;1.33;;;20.30;99.90;;;;;;5028536;28;20021;-51
2022/07/12 08:56:07;;;;;;;2.10;1.70;;;20.40;99.90;;;;;;5027662;28;20040;-51
2022/07/12 08:58:33;;;;;;;1.73;1.63;;;20.30;99.90;;;;;;5028255;28;20388;-52
2022/07/12 09:01:00;;;;;;;1.63;1.33;;;20.30;99.90;;;;;;5011027;28;20025;-54
2022/07/12 09:03:26;;;;;;;1.27;1.20;;;20.40;99.90;;;;;;5011271;28;20029;-54
2022/07/12 09:05:57;;;;;;;1.40;1.30;;;20.50;99.90;;;;;;5028413;28;20488;-49
2022/07/12 09:08:32;;;;;;;2.63;1.70;;;20.70;99.90;;;;;;5027749;28;20111;-50
2022/07/12 09:11:02;;;;;;;1.90;1.50;;;20.70;99.90;;;;;;5028338;28;20183;-54
2022/07/12 09:13:52;;;;;;;2.20;1.48;;;20.70;99.90;;;;;;5028518;28;20056;-50
2022/07/12 09:16:35;;;;;;;3.22;1.60;;;20.70;99.90;;;;;;5028850;28;20021;-57
2022/07/12 09:19:16;;;;;;;1.45;1.30;;;20.70;99.90;;;;;;5028607;28;20409;-56
2022/07/12 09:22:16;;;;;;;3.17;1.48;;;20.60;99.90;;;;;;5011446;28;20079;-53
2022/07/12 09:24:42;;;;;;;1.38;1.02;;;20.70;99.90;;;;;;5028283;28;20040;-51
2022/07/12 09:27:07;;;;;;;2.10;1.15;;;20.90;99.90;;;;;;5028529;28;20037;-52
2022/07/12 09:29:49;;;;;;;1.23;1.08;;;21.30;99.90;;;;;;5029043;28;20124;-52
2022/07/12 09:37:44;;;;;;;1.38;1.27;;;21.70;99.90;;;;;;5028383;28;20103;-52
2022/07/12 09:40:10;;;;;;;1.20;1.05;;;21.50;99.90;;;;;;5028520;28;20480;-51
2022/07/12 09:42:37;;;;;;;1.70;1.20;;;21.60;99.90;;;;;;5028270;28;20026;-54
2022/07/12 09:45:04;;;;;;;1.20;1.10;;;21.80;99.90;;;;;;5028073;28;20092;-50
2022/07/12 09:47:30;;;;;;;1.50;1.30;;;22.00;99.90;;;;;;5028613;28;20060;-54
2022/07/12 09:49:56;;;;;;;1.33;1.23;;;22.10;99.90;;;;;;5026801;28;20045;-56
2022/07/12 09:52:24;;;;;;;1.65;1.17;;;22.30;99.90;;;;;;5028072;28;20033;-51
2022/07/12 09:54:51;;;;;;;1.58;1.20;;;22.40;99.90;;;;;;5028649;28;20032;-50
2022/07/12 09:57:20;;;;;;;1.20;0.95;;;22.50;99.90;;;;;;5028171;28;20025;-56
2022/07/12 09:59:49;;;;;;;1.85;1.13;;;22.50;99.90;;;;;;5011003;28;20033;-52
2022/07/12 10:02:15;;;;;;;1.02;1.00;;;22.60;99.90;;;;;;5025276;28;20056;-56
2022/07/12 10:04:42;;;;;;;1.33;1.15;;;22.70;99.90;;;;;;5028363;28;20514;-52
2022/07/12 10:07:08;;;;;;;1.00;1.00;;;22.60;99.90;;;;;;5028462;28;20484;-52
2022/07/12 10:09:35;;;;;;;3.58;1.10;;;22.60;99.90;;;;;;5026338;28;20040;-51
2022/07/12 10:12:02;;;;;;;1.17;1.00;;;22.70;99.90;;;;;;5028246;28;20480;-56
2022/07/12 10:14:28;;;;;;;1.40;1.08;;;22.70;99.90;;;;;;5028185;28;20479;-50
2022/07/12 10:16:56;;;;;;;2.58;1.20;;;22.80;99.90;;;;;;5010702;28;20037;-51
2022/07/12 10:19:32;;;;;;;3.72;2.33;;;22.80;99.90;;;;;;5028120;28;20044;-54
2022/07/12 10:21:59;;;;;;;1.10;1.05;;;22.60;99.90;;;;;;5027760;28;20506;-56
2022/07/12 10:24:31;;;;;;;1.35;1.25;;;22.60;99.90;;;;;;5023853;28;20033;-55
2022/07/12 10:26:58;;;;;;;1.58;1.30;;;22.70;99.90;;;;;;5025902;28;20032;-53
2022/07/12 10:29:24;;;;;;;1.30;1.20;;;22.50;99.90;;;;;;5011872;28;20116;-56
2022/07/12 10:31:50;;;;;;;1.52;1.33;;;22.50;99.90;;;;;;5031412;28;20021;-56
2022/07/12 10:34:28;;;;;;;1.40;1.30;;;22.50;99.90;;;;;;5029963;28;20400;-54
2022/07/12 10:36:54;;;;;;;1.85;1.10;;;22.60;99.90;;;;;;5027916;28;20021;-53
2022/07/12 10:39:20;;;;;;;3.08;1.30;;;22.70;99.90;;;;;;5030752;28;20039;-59
2022/07/12 10:42:06;;;;;;;1.33;1.23;;;22.80;99.90;;;;;;5030790;28;20029;-55
2022/07/12 10:44:44;;;;;;;1.70;1.60;;;22.90;99.90;;;;;;5025189;28;20103;-49
2022/07/12 10:47:15;;;;;;;2.40;1.20;;;22.90;99.90;;;;;;5030218;28;20044;-58
2022/07/12 10:49:49;;;;;;;2.22;1.50;;;22.90;99.90;;;;;;5030964;28;20029;-51
2022/07/12 10:52:25;;;;;;;0.88;0.88;;;22.90;99.90;;;;;;5030616;28;20399;-54
2022/07/12 10:54:57;;;;;;;1.08;0.93;;;22.90;99.90;;;;;;5031146;28;20018;-55
2022/07/12 10:57:43;;;;;;;6.20;1.58;;;22.90;99.90;;;;;;5031404;28;20095;-54
2022/07/12 11:00:10;;;;;;;3.53;1.08;;;23.00;99.90;;;;;;5013711;28;20334;-51
2022/07/12 11:02:37;;;;;;;3.20;1.08;;;23.00;99.90;;;;;;5030803;28;20036;-51
2022/07/12 11:05:03;;;;;;;1.42;1.33;;;22.90;99.90;;;;;;5030266;28;20052;-53
2022/07/12 11:07:30;;;;;;;10.93;2.13;;;23.00;99.90;;;;;;5031065;28;20449;-55
2022/07/12 11:09:56;;;;;;;3.72;1.15;;;23.00;99.90;;;;;;5031489;28;20484;-55
2022/07/12 11:12:29;;;;;;;1.60;0.70;;;23.10;99.90;;;;;;5030744;28;20033;-55
2022/07/12 11:14:55;;;;;;;1.17;0.80;;;23.10;99.90;;;;;;5030647;28;20407;-54
2022/07/12 11:17:26;;;;;;;1.98;1.58;;;23.20;99.90;;;;;;5030566;28;20028;-52
2022/07/12 11:20:08;;;;;;;0.98;0.80;;;23.10;99.90;;;;;;5009669;28;20030;-55
2022/07/12 11:22:34;;;;;;;0.95;0.95;;;23.20;99.90;;;;;;5030582;28;20028;-52
2022/07/12 11:25:00;;;;;;;1.85;1.23;;;23.20;99.90;;;;;;5030847;28;20451;-51
2022/07/12 11:27:28;;;;;;;2.22;0.95;;;23.40;99.90;;;;;;5030625;28;20047;-56
2022/07/12 11:30:00;;;;;;;1.58;1.23;;;23.50;99.90;;;;;;5030691;28;20488;-52
2022/07/12 11:32:40;;;;;;;1.90;0.85;;;23.40;99.90;;;;;;5029934;28;20021;-50
2022/07/12 11:35:25;;;;;;;1.05;1.00;;;23.40;99.90;;;;;;5030295;28;20033;-52
2022/07/12 11:37:56;;;;;;;1.35;1.10;;;23.40;99.90;;;;;;5030147;28;20110;-50
2022/07/12 11:40:31;;;;;;;1.23;1.13;;;23.20;99.90;;;;;;5029591;28;20061;-54
2022/07/12 11:42:58;;;;;;;0.75;0.75;;;23.20;99.90;;;;;;5029877;28;20037;-52
2022/07/12 11:45:34;;;;;;;1.58;1.20;;;23.30;99.90;;;;;;5012771;28;20025;-53
2022/07/12 11:48:02;;;;;;;3.20;1.30;;;23.30;99.90;;;;;;5030045;28;20029;-51
2022/07/12 11:50:29;;;;;;;1.92;1.20;;;23.40;99.90;;;;;;5030303;28;20018;-52
2022/07/12 11:52:55;;;;;;;1.10;1.00;;;23.50;99.90;;;;;;5011543;28;20109;-55
2022/07/12 11:55:21;;;;;;;0.68;0.68;;;23.50;99.90;;;;;;5030578;28;20056;-52
2022/07/12 11:57:47;;;;;;;0.90;0.85;;;23.60;99.90;;;;;;5029818;28;20060;-52
2022/07/12 12:00:13;;;;;;;2.22;1.08;;;23.60;99.90;;;;;;5012579;28;20437;-55
2022/07/12 12:02:38;;;;;;;1.10;1.10;;;23.60;99.90;;;;;;5029637;28;20538;-55
2022/07/12 12:05:04;;;;;;;1.00;1.00;;;23.60;99.90;;;;;;5029976;28;20018;-49
2022/07/12 12:07:30;;;;;;;0.95;0.95;;;23.60;99.90;;;;;;5030177;28;20018;-52
2022/07/12 12:10:13;;;;;;;1.00;1.00;;;23.60;99.90;;;;;;5011932;28;20034;-50
2022/07/12 12:12:49;;;;;;;1.20;1.10;;;23.70;99.90;;;;;;5029475;28;20021;-52
2022/07/12 12:15:18;;;;;;;0.98;0.98;;;23.70;99.90;;;;;;5025921;28;20028;-50
2022/07/12 12:17:55;;;;;;;1.35;1.25;;;23.80;99.90;;;;;;5029889;28;20420;-52
2022/07/12 12:20:23;;;;;;;1.00;1.00;;;23.90;99.90;;;;;;5026586;28;20029;-55
2022/07/12 12:22:54;;;;;;;1.98;1.20;;;24.00;99.90;;;;;;5029112;28;20036;-53
2022/07/12 12:25:20;;;;;;;1.40;0.80;;;24.00;99.90;;;;;;5029836;28;20104;-53
2022/07/12 12:27:57;;;;;;;1.42;0.82;;;24.10;99.90;;;;;;5029140;28;20021;-54
2022/07/12 12:30:23;;;;;;;1.50;1.08;;;24.20;99.90;;;;;;5022746;28;20543;-51
2022/07/12 12:32:49;;;;;;;1.60;1.38;;;24.20;99.90;;;;;;5010754;28;20035;-56
2022/07/12 12:35:17;;;;;;;1.65;1.52;;;24.20;99.90;;;;;;5029137;28;20021;-53
2022/07/12 12:37:58;;;;;;;1.60;1.40;;;24.20;99.90;;;;;;5029111;28;20036;-55
2022/07/12 12:40:26;;;;;;;3.65;1.55;;;24.20;99.90;;;;;;5093386;22;20563;-54
2022/07/12 12:42:52;;;;;;;1.98;1.88;;;24.30;99.90;;;;;;5048013;28;20044;-56
2022/07/12 12:45:23;;;;;;;2.15;1.25;;;24.30;99.90;;;;;;5049241;28;20021;-53
2022/07/12 12:48:01;;;;;;;1.77;1.30;;;24.30;99.90;;;;;;5048598;28;20403;-55
2022/07/12 12:50:44;;;;;;;1.40;1.30;;;24.30;99.90;;;;;;5049414;28;20387;-54
2022/07/12 12:53:14;;;;;;;1.50;1.40;;;24.50;99.90;;;;;;5042708;28;20021;-53
2022/07/12 12:55:41;;;;;;;1.30;1.20;;;24.40;99.90;;;;;;5049251;28;20029;-55
2022/07/12 12:58:07;;;;;;;1.92;1.83;;;24.50;99.90;;;;;;5048488;28;20037;-52